Alisal, California
Current Conditions -  °F | °C
As of 2:53 PM on Saturday 25 Oct 2014 (Local Time) from KSNS Reporting Station
Few Clouds Few Clouds  
Wind Chill: 70°   Ceiling: Unl
Heat Index: 70°   Visibility: 10mi
Dew Point: 55°   Wind: 9mph
Humidity: 59%   Direction: 270°W
Pressure: 30.08"   Gusts: NA
Location:  36.6786°N, 121.613°W
Report Text: KSNS 252153Z AUTO 27008KT 10SM FEW033 21/13 A3008 RMK AO2 SLP195 T02110128
Loading
Personal Weather Stations






























Interactive Weather Map
Tropical Storm Tracking
New forecast layout! Learn more

10-Day Weather Forecast

Advertisements
Track Severe Weather on mobile